Time,TemperatureF,DewpointF,PressureIn,WindDirection,WindDirectionDegrees,WindSpeedMPH,WindSpeedGustMPH,Humidity,HourlyPrecipIn,Conditions,Clouds,dailyrainin,SoftwareType,DateUTC
2013-09-22 00:02:00,-999.0,-99.9,29.81,West,264,0.0,0.0,-999,-99.99,,,-99.99,,2013-09-22 04:02:00,
2013-09-22 00:23:00,57.0,57.0,29.81,West,264,0.0,0.0,100,0.00,,,1.51,,2013-09-22 04:23:00,
2013-09-22 00:54:00,57.0,57.0,29.81,West,264,0.0,0.0,100,0.00,,,1.51,,2013-09-22 04:54:00,
2013-09-22 01:23:00,57.0,57.0,29.82,West,264,0.0,0.0,100,0.00,,,1.51,,2013-09-22 05:23:00,
2013-09-22 01:53:00,57.0,57.0,29.83,West,264,0.0,0.0,100,0.00,,,1.51,,2013-09-22 05:53:00,
2013-09-22 02:22:00,56.0,56.0,29.83,West,264,0.0,0.0,100,0.00,,,1.51,,2013-09-22 06:22:00,
2013-09-22 02:52:00,55.0,55.0,29.83,West,264,0.0,0.0,100,0.00,,,1.51,,2013-09-22 06:52:00,
2013-09-22 03:22:00,56.0,56.0,29.83,West,264,0.0,0.0,100,0.00,,,1.51,,2013-09-22 07:22:00,
2013-09-22 03:52:00,55.0,55.0,29.83,West,264,0.0,0.0,100,0.00,,,1.51,,2013-09-22 07:52:00,
2013-09-22 04:22:00,55.0,55.0,29.84,West,264,0.0,0.0,100,0.00,,,1.51,,2013-09-22 08:22:00,
2013-09-22 04:52:00,55.0,55.0,29.84,West,264,0.0,0.0,100,0.00,,,1.51,,2013-09-22 08:52:00,
2013-09-22 05:22:00,55.0,55.0,29.85,West,264,0.0,0.0,100,0.00,,,1.51,,2013-09-22 09:22:00,
2013-09-22 05:54:00,55.0,55.0,29.85,West,264,0.0,0.0,100,0.00,,,1.51,,2013-09-22 09:54:00,
2013-09-22 06:12:00,55.0,55.0,29.85,West,264,0.0,0.0,100,0.00,,,1.51,,2013-09-22 10:12:00,
2013-09-22 06:23:00,55.0,55.0,29.85,West,264,0.0,0.0,100,0.00,,,1.51,,2013-09-22 10:23:00,
2013-09-22 06:53:00,55.0,55.0,29.86,West,264,0.0,0.0,100,0.00,,,1.51,,2013-09-22 10:53:00,
2013-09-22 07:22:00,55.0,55.0,29.87,West,264,0.0,0.0,100,0.00,,,1.51,,2013-09-22 11:22:00,
2013-09-22 07:52:00,54.0,54.0,29.88,West,264,0.0,0.0,100,0.00,,,1.51,,2013-09-22 11:52:00,
2013-09-22 08:22:00,55.0,55.0,29.89,West,264,0.0,0.0,100,0.00,,,1.51,,2013-09-22 12:22:00,
2013-09-22 08:52:00,55.0,55.0,29.90,West,264,0.0,0.0,100,0.00,,,1.51,,2013-09-22 12:52:00,
2013-09-22 09:22:00,54.0,54.0,29.91,West,264,0.0,0.0,100,0.00,,,1.51,,2013-09-22 13:22:00,
2013-09-22 09:52:00,56.0,56.0,29.92,West,264,0.0,0.0,100,0.00,,,1.51,,2013-09-22 13:52:00,
2013-09-22 10:22:00,56.0,56.0,29.92,North,4,0.0,0.0,100,0.00,,,1.51,,2013-09-22 14:22:00,
2013-09-22 10:52:00,57.0,57.0,29.93,North,0,0.0,0.0,100,0.00,,,1.51,,2013-09-22 14:52:00,
2013-09-22 11:23:00,58.0,55.0,29.93,North,7,3.0,0.0,91,0.00,,,1.51,,2013-09-22 15:23:00,
2013-09-22 11:54:00,59.0,52.0,29.93,WNW,298,8.0,8.0,78,0.00,,,1.51,,2013-09-22 15:54:00,
2013-09-22 12:24:00,60.0,51.0,29.94,West,281,2.0,3.0,73,0.00,,,1.51,,2013-09-22 16:24:00,
2013-09-22 12:54:00,60.0,51.0,29.94,North,350,6.0,6.0,71,0.00,,,1.51,,2013-09-22 16:54:00,
2013-09-22 13:23:00,61.0,50.0,29.95,NW,312,2.0,6.0,67,0.00,,,1.51,,2013-09-22 17:23:00,
2013-09-22 13:53:00,59.0,49.0,29.94,North,7,2.0,0.0,69,0.00,,,1.51,,2013-09-22 17:53:00,
2013-09-22 14:22:00,60.0,49.0,29.94,North,8,6.0,0.0,67,0.00,,,1.51,,2013-09-22 18:22:00,
2013-09-22 14:52:00,61.0,49.0,29.94,North,8,7.0,7.0,65,0.00,,,1.51,,2013-09-22 18:52:00,
2013-09-22 15:22:00,60.0,49.0,29.94,North,352,0.0,0.0,66,0.00,,,1.51,,2013-09-22 19:22:00,
2013-09-22 15:52:00,64.0,48.0,29.94,North,359,0.0,0.0,56,0.00,,,1.51,,2013-09-22 19:52:00,
2013-09-22 16:22:00,60.0,46.0,29.94,WNW,283,1.0,0.0,60,0.00,,,1.51,,2013-09-22 20:22:00,
2013-09-22 16:52:00,62.0,47.0,29.94,NNW,336,0.0,0.0,58,0.00,,,1.51,,2013-09-22 20:52:00,
2013-09-22 17:23:00,59.0,46.0,29.94,WNW,291,0.0,0.0,62,0.00,,,1.51,,2013-09-22 21:23:00,
2013-09-22 17:54:00,59.0,48.0,29.94,West,260,0.0,0.0,67,0.00,,,1.51,,2013-09-22 21:54:00,
2013-09-22 18:24:00,58.0,50.0,29.95,WNW,285,0.0,0.0,76,0.00,,,1.51,,2013-09-22 22:24:00,
2013-09-22 18:54:00,57.0,52.0,29.95,WNW,285,0.0,0.0,82,0.00,,,1.51,,2013-09-22 22:54:00,
2013-09-22 19:22:00,56.0,51.0,29.96,WNW,293,0.0,0.0,83,0.00,,,1.51,,2013-09-22 23:22:00,
2013-09-22 19:34:00,56.0,51.0,29.96,WNW,293,0.0,0.0,83,0.00,,,1.51,,2013-09-22 23:34:00,
2013-09-22 19:52:00,55.0,51.0,29.97,WNW,283,0.0,0.0,87,0.00,,,1.51,,2013-09-22 23:52:00,
2013-09-22 20:23:00,55.0,52.0,29.97,West,277,0.0,0.0,88,0.00,,,1.51,,2013-09-23 00:23:00,
2013-09-22 20:53:00,54.0,51.0,29.99,WNW,297,0.0,0.0,90,0.00,,,1.51,,2013-09-23 00:53:00,
2013-09-22 21:22:00,54.0,51.0,30.00,WSW,238,0.0,0.0,91,0.00,,,1.51,,2013-09-23 01:22:00,
2013-09-22 21:52:00,54.0,51.0,30.01,WSW,238,0.0,0.0,90,0.00,,,1.51,,2013-09-23 01:52:00,
2013-09-22 22:22:00,54.0,50.0,30.01,WSW,245,0.0,0.0,85,0.00,,,1.51,,2013-09-23 02:22:00,
2013-09-22 22:52:00,54.0,51.0,30.01,West,273,0.0,0.0,89,0.00,,,1.51,,2013-09-23 02:52:00,
2013-09-22 23:23:00,53.0,51.0,30.02,West,273,0.0,0.0,92,0.00,,,1.51,,2013-09-23 03:23:00,
2013-09-22 23:54:00,52.0,51.0,30.02,West,273,0.0,0.0,95,0.00,,,1.51,,2013-09-23 03:54:00,